Timeline UpdatesTrip UpdatesNews PostsPvt PostsTravel TipsAdmin PostsConv PostsFollowed PostsChat RequestsBlog PostsPNR Posts

Disclaimer
Search
 
 
Wed Jul 30, 2014 22:43:30 ISTHomeTrainsΣChainsAtlasPNRForumGalleryNewsFAQTripsMembersLoginFeedback
No Recent News for this Train
Other Trains in the News **new
Latest...
Rung wit BE
Thu Jul 18, 2013 (08:22AM)
⇐ Return Journey: Train# 16688

16687 slip route⇒16687/Navyug Express

Dec 31 2013 (1:35PM)
Change Departure Station:
Change Arrival Station:
Post a Train Travel TipPost a Train Travel Tip **new
Post a Comment/Question/Picture/VideoPost a Comment/Question/Picture/Video
Pantry/Catering
✓ Pantry Car Avbl
✓ Catering Avbl
Good Food
RSA - Rake Sharing
NO RSA
Rake/Coach Composition
LOCO-HCPV-SLR-UR-A2-S9-S8-S7-S6-PC-S5-S4-S3-S2-S1-A1-B1-B2-UR-UR-SLR
Loco
WDM3A ERS shed MAQ-SRR SRR to NDLS - WAP 4 WDM3A TKD...
Read more...
Shed frm NDLS 2 JAT
News    PNR    Forum    Time-Table    Availability    Fare Chart    Map    Arr/Dep History    Trips    Gallery    ΣChains    X/O    Timeline    
Travel Time: 0h 32m    0 halts    Distance: 9 km    Avg Speed: 16 km/hr
Type: Mail/Express
Zone: SR/Southern
Departs @ 12:38 (Avg 21m late)
Platform# 1
    T  
Bari Brahman/BBMN 
Arrives @ 13:10 (Avg 6m late)
Platform# 3
    T  
Jammu Tawi/JAT 

0 halts. 0 intermediate Stations between Bari Brahman and Jammu Tawi

Show ALL intermediate Stations  Show Old Time-Table

#CodeStation NameX/OArrivesAvgDepartsAvgHaltPFDay#KmSpeedElevZoneAddress
1MAQMangalore Central (4)  -16:50+821-3600.16414mSRMangalore 575001, Karnataka
2KGQKasaragod (3)O  17:33+1517:35+142m--1-3554.45718mSRTel: 04994 220800, Kerala
3CANKannur Main (3)X  19:05+019:10+105m31-3468.36914mSRKannur Tel: 0497 2705555, Kerala
4TLYThalassery (2)  19:28+1319:30+142m--1-3447.7559mSRKannur, Kerala
5CLTKozhikode Main (4)  20:45+820:50+125m--1-3379.35811mSRCalicut Tel: 0495 2701234, Kerala
6SRRShoranur Junction (7)  22:20+1722:30+3410m41-3293.05926mSRShoranur ph.no 0466-2222913, Kerala
7PGTPalakkad Junction (4)  23:15+2523:20+255m31-3248.74184mSRPalghat Tel: 0491 2555231, Kerala
8CBECoimbatore Main Junction (6)  00:41+2100:45+224m--2-3192.971416mSRCoimbatore 641001, Tamil Nadu
9TUPTiruppur (2)  01:28+2601:30+262m22-3142.346305mSRTiruppur. Ph:0421-2200450, Tamil Nadu
10EDErode Junction (4)XO  02:35+903:05+1630m12-3092.474175mSRErode ph.no: 0424-2256111, Tamil Nadu
11SASalem Junction (6)X  03:55+1904:00+195m--2-3030.756283mSRSalem, Tamil Nadu
12JTJJolarpettai Junction (5)  06:08+406:10+62m--2-2910.569405mSRJolarpettai, Tamil Nadu
13KPDKatpadi Junction (5)  07:23+007:25+32m--2-2826.647213mSRVellore 632007, Tamil Nadu
14CTOChittoor (3)X  08:07+1308:08+141m--2-2793.651305mSCR517001., Andhra Pradesh
15TPTYTirupati Main (5)  09:33+009:35+32m--2-2721.740150mSCRChittoor Distt, Andhra Pradesh
16RURenigunta Junction (5)  09:50+610:00+1010m--2-2711.851113mSCRChittoor District, Andhra Pradesh
17GDRGudur Junction (3)XO  11:38+611:40+92m22-2628.4-19mSCRGudur, Andhra Pradesh
18NLRNellore (4)  11:50+3311:51+361m22-2589.98121mSCRNellore, Andhra Pradesh
19OGLOngole (3)  13:18+5213:19+531m12-2473.28612mSCROngole, Andhra Pradesh
20TELTenali Junction (5)XO  14:34+1:0214:35+1:021m42-2366.12216mSCRTel: 08644-227834, Andhra Pradesh
21BZAVijayawada Junction (10)X  16:00+3916:20+3620m--2-2334.98624mSCRVijayawada 520001, Andhra Pradesh
22KMTKhammam (2)  17:30+4517:32+452m22-2234.550118mSCRKhammam 507001, Telangana
23WLWarangal (3)  19:40+1119:45+145m22-2126.976271mSCRWarangal., Telangana
24RDMRamagundam (3)  21:05+1821:06+201m12-2025.859170mSCRKarimnagar Dist. Ph : 08728 - 255237, Telangana
25BPQBalharshah Junction (5)  23:30+223:40+610m--2-1884.052188mCRBallarpur. Ph : 07172 - 240341, Maharashtra
26CDChandrapur Maharashtra (3)  23:56+1323:57+151m--2-1870.273194mCRChandrapur 442401, Maharashtra
27SEGMSewagram Junction (5)X  01:34+1701:36+182m--3-1751.666279mCRWardha, Maharashtra
28NGPNagpur Junction (8)  02:45+1902:55+2310m13-1675.466314mCRNagpur 440001, Maharashtra
29ETItarsi Junction (7)X  07:25+4107:30+495m--3-1378.352329mWCRItarsi 461111, Madhya Pradesh
30BPLBhopal Junction (6)O  09:15+5909:20+1:015m23-1286.662497mWCRBhopal, Madhya Pradesh
31JHSJhansi Junction (7)XO  14:02+3014:10+338m--3-994.873259mNCRJhansi, Uttar Pradesh
32GWLGwalior Junction (4)X  15:30+4415:35+435m43-897.183214mNCRGwalior, Madhya Pradesh
33DHODholpur Junction (3)X  16:22+4216:24+412m13-831.752177mNCRDholpur, Rajasthan
34AGCAgra Cantt. (6)  17:25+5317:30+575m33-779.167174mNCRAgra, Uttar Pradesh
35FDBFaridabad (4)  20:00+3620:01+371m23-612.232206mNRold Faridabad, Haryana
36NZMDelhi Hazrat Nizamuddin (7)XO  20:40+4121:10+3330m13-591.415209mNRNizamuddin East/Sarai KaleKhan Bus Terminal, Delhi NCT
37NDLSNew Delhi (16)  21:40+2900:10+2150m53-584.020215mNRNew Delhi, Delhi NCT
38SSBShakur Basti  00:42+300:44+32m--4-573.270216mNRPitampura, Delhi NCT
39BGZBahadurgarh  01:01+601:02+81m--4-553.273220mNRBahadurgarh, Haryana
40ROKRohtak Junction (3)  01:35+1201:40+105m--4-513.062220mNRRohtak, Haryana
41JINDJind Junction (3)  02:35+502:40+35m--4-455.978222mNR126102., Haryana
42NRWNarwana Junction (4)  03:06+503:07+61m--4-422.073235mNRWay to Narwana, Haryana
43TUNTohana (2)X  03:28+503:29+61m--4-396.520232mNRTohana, Haryana
44JHLJakhal JunctionO  04:05-504:10+05m--4-384.385225mNRJakhal, Haryana
45LHALehra Gaga (1)  04:22+604:24+62m14-367.371227mNRSangrur, Punjab
46SFMSunam (1)O  04:42+904:44+92m14-346.064235mNRSunam, Punjab
47SAGSangrur (2)X  04:56+1004:58+112m24-333.230239mNRSangrur, Punjab
48DUIDhuri Junction (4)  05:30+305:35+45m--4-317.278248mNRDhuri, Punjab
49METMalerkotla (2)XO  05:48+605:50+62m--4-300.470248mNRMalerkotla., Punjab
50AHHAhmadgarh (1)X  06:07+706:09+92m14-280.527256mNRAhmedgarh, Punjab
51QRPKila Raipur (1)  06:26+406:28+52m14-272.948262mNRDelhon Pakhowal Rd, Punjab
52LDHLudhiana Junction (7)X  06:50+1607:00+4310m44-255.134246mNRLudhiana 141001, Punjab
53PHRPhillaur Junction (3)X  07:23+2907:25+292m24-242.175246mNRPhillaur, Punjab
54PGWPhagwara Junction (3)X  07:43+2207:45+222m24-219.565245mNRPhagwara, Punjab
55JRCJalandhar Cantt. Junction (3)O  08:00+3708:05+425m34-203.263239mNRNear Rama Mandi, Punjab
56TDOTanda Urmar (3)  08:45+3508:47+352m14-160.966239mNRUrmar Tanda, Punjab
57DZADasuya (2)  09:01+3709:03+372m14-145.656251mNRDasuya distt. hoshiarpur, Punjab
58MEXMukerian (3)X  09:19+3809:21+382m24-130.535257mNRMukerian distt. hosiharpur, Punjab
59PTKCPathankot Cantt (3)X  10:30+1810:35+215m24-90.732328mNRPathankot By Pass Ph:0186-2251594, Punjab
60KTHUKathua (2)X  11:19+711:21+72m14-67.562396mNRdistt. kathua, Jammu and Kashmir
61SMBXSamba (2)  12:03+2512:05+252m24-23.946365mNRDist. Samba, Jammu and Kashmir
62BBMN»Bari Brahman (2)»  12:36+2212:38+212m140.016333mNRdistt. samba, Jammu and Kashmir
63JAT•Jammu Tawi (3)•  13:10+6-348.7-337mNRJammu 180002, Jammu and Kashmir
Scroll to Top
Scroll to Bottom